RUNNER RESULTSRunner results by name. Search our database. FIND YOURS »

Results of the Paris Mountain 5M – 10.5M – 15.5M Races – January 25, 2014 – Paris Mountain State Park – Greenville, SC

Expedition Paris Mountain

Congratulations to all who finished this trio of challenging Expedition Paris Mountain trail races. Click here for age groups. Results courtesy of Go Run Events.

Overall Finish List – 5 Mile
Place Name City Bib No Age Gender Age Group Total Time
1 David Patalano Greenwood SC 1030 26 M 1 25-29 34:38.5
2 Jonathan Anderson Matthews NC 1002 24 M 1 20-24 39:03.5
3 Anne Anders Heidesee 1001 29 F 1 25-29 41:14.6
4 Kristin Tempel Greenville SC 1045 25 F 2 25-29 42:22.6
5 Hugo Casahonda Rock Hill SC 1010 33 M 1 30-34 44:17.1
6 Thomas Stiles Fort Mill SC 1041 38 M 1 35-39 44:41.6
7 Lisa Wolfe Asheville NC 1046 53 F 1 50-54 45:53.3
8 Ernest Shaver Smyrna SC 1037 58 M 1 55-59 46:44.8
9 John Knight Greenville SC 1024 46 M 1 45-49 46:55.8
10 Seth Fogle Reston VA 1047 40 M 1 40-44 47:07.1
11 Corinne Schmidt Johnson City TN 1035 21 F 1 20-24 48:56.2
12 Keith Hulsey Greenville SC 1048 43 M 2 40-44 49:05.5
13 Amanda Kerr Clemson SC 1023 25 F 3 25-29 49:29.8
14 Erin Hinson Greenville SC 1022 40 F 1 40-44 49:53.6
15 Karen Tempel Aiken SC 1043 50 F 2 50-54 51:08.3
16 Janet Brown Greer SC 1007 32 F 1 30-34 52:05.6
17 Leo Fackler Greenville SC 1014 33 M 2 30-34 52:26.6
18 Robert Walter Greenville SC 1049 30 M 3 30-34 53:34.2
19 Marna Hill Columbia SC 1021 44 F 2 40-44 53:55.3
20 Kevin Tempel Aiken SC 1044 52 M 1 50-54 54:05.5
21 Christina Gibson Anderson SC 1016 23 F 2 20-24 54:12.1
22 Mike Loftis Rock Hill SC 1025 46 M 2 45-49 54:20.6
23 Jeremy McCollum Pickens SC 1027 30 M 4 30-34 55:35.9
24 Kimberly Olsen Simpsonville SC 1029 28 F 4 25-29 56:49.6
25 Ashley Reinhart Columbus GA 1032 28 F 5 25-29 56:58.0
26 barry burns easley SC 1009 39 M 2 35-39 58:17.8
27 Alyson Burns easley SC 1008 28 F 6 25-29 58:18.3
28 Robin Darnell Simpsonville SC 1011 42 F 3 40-44 1:00:07.6
29 Nicole Hegger Simpsonville SC 1019 36 F 1 35-39 1:00:33.8
30 Sharon Roberts flat rock NC 1034 44 F 4 40-44 1:01:00.7
31 Ryan Mosier Greenville SC 1028 42 M 3 40-44 1:02:08.2
32 Barbara Shaver Smyrna SC 1036 53 F 3 50-54 1:06:15.3
33 Tina Bishop Fountain Inn SC 1004 36 F 2 35-39 1:08:35.8
34 Kim Brookshire Travelers Rest SC 1006 45 F 1 45-49 1:12:03.9
35 Jason Riddle Easley SC 1033 39 M 3 35-39 1:14:32.6

Overall Finish List – 10.5 Mile
Place Name City Bib No Age Gender Age Group Total Time
1 Cameron Dorn Waterloo SC 274 25 M 1 25-29 1:15:40.7
2 Geoff Aucoin Simpsonville SC 301 52 M 1 50-54 1:20:40.4
3 Matthew Whitworth Huntsville AL 297 37 M 1 35-39 1:28:37.2
4 Rick Keizer Anderson SC 282 55 M 1 55-59 1:29:40.2
5 Nicholas Dixon Charlotte NC 273 27 M 2 25-29 1:30:30.0
6 Sean McElveen Greer SC 284 35 M 2 35-39 1:30:57.9
7 Lance Darnell Simpsonville SC 271 37 M 3 35-39 1:34:16.4
8 Lindsey Jones Greenville SC 281 29 F 1 25-29 1:39:52.6
9 William Jefferson Hopkins SC 279 51 M 2 50-54 1:39:55.2
10 Carl Foulks Mooresville NC 304 42 M 1 40-44 1:42:22.2
11 Stacy Richardson Augusta GA 291 44 F 1 40-44 1:43:49.0
12 Allison Phelps Charlotte NC 288 27 F 2 25-29 1:46:45.8
13 Beth Barry Greenville SC 268 34 F 1 30-34 1:46:48.1
14 Dan Fulcher Pelzer SC 276 40 M 2 40-44 1:47:39.3
15 Carlos Santana Piedmont SC 300 37 M 4 35-39 1:48:40.9
16 Jonathan Rafferty Anderson SC 290 39 M 5 35-39 1:48:55.9
17 Jeffrey Hudson Greer SC 278 56 M 2 55-59 1:49:04.9
18 Phillip Frye Charlotte NC 275 42 M 3 40-44 1:51:10.9
19 Sarah Zeinstra GREENVILLE SC 299 29 F 3 25-29 1:53:09.9
20 William Timmons Greenville SC 295 29 M 3 25-29 1:54:32.8
21 Merritt Phillips Greenville SC 289 17 F 1 0-19 1:54:45.4
22 Andrew Culbreath Simpsonville SC 270 42 M 4 40-44 1:54:47.8
23 Allison Grainger Asheville NC 302 40 F 2 40-44 1:59:08.8
24 Svetlana Moeller Charlotte NC 285 32 F 2 30-34 2:00:19.5
25 Silvie Kendall Greenville SC 283 35 F 1 35-39 2:00:22.3
26 Heather Taylor Greer SC 294 41 F 3 40-44 2:03:13.5
27 Christina Nebel Charlotte NC 286 29 F 4 25-29 2:05:48.0
28 Peter Nebel Charlotte NC 287 32 M 1 30-34 2:05:49.1
29 Deana Gilliam Forest City NC 277 44 F 4 40-44 2:06:22.1
30 Dave Shumaker Simpsonville SC 292 48 M 1 45-49 2:07:34.3
31 Stephanie Lyko Simpsonville SC 306 27 F 5 25-29 2:14:38.8
32 Ellen Dewey Sherrills Ford NC 272 60 F 1 60-64 2:16:14.3
33 Kathy Webb Anderson SC 296 56 F 1 55-59 2:21:15.6

Overall Finish List – 15.5 Mile
Place Name City Bib No Age Gender Age Group Total Time
1 Jonathon Allen Simpsonville SC 438 35 M 1 35-39 2:00:48.2
2 David Workman Hendersonville NC 470 43 M 1 40-44 2:04:59.2
3 David Chandler Asheville NC 466 22 M 1 20-24 2:07:19.6
4 Isaac Arnold Seneca SC 439 17 M 1 0-19 2:10:55.0
5 Lynn Honnette Greenville SC 450 31 F 1 30-34 2:10:56.2
6 Joe Van Leeuwen Greenville SC 468 25 M 1 25-29 2:12:48.4
7 Aaron Honnette Greenville SC 449 33 M 1 30-34 2:18:34.0
8 Stefan Krause Simpsonville SC 453 47 M 1 45-49 2:20:12.4
9 John Henis Simpsonville SC 469 47 M 2 45-49 2:22:18.9
10 Larry Clevenstine Simpsonville SC 445 43 M 2 40-44 2:27:07.0
11 Sergio Balboa Piedmont SC 440 40 M 3 40-44 2:31:26.1
12 Seth Chapman Anderson SC 443 35 M 2 35-39 2:32:49.1
13 Tsutomu Takeda Greenville SC 463 36 M 3 35-39 2:33:39.9
14 Brandon Lyko simpsonville SC 454 27 M 2 25-29 2:34:32.2
15 Mark Moyer Greenville SC 456 49 M 3 45-49 2:36:13.0
16 Bryan Dillingham Arden NC 467 38 M 4 35-39 2:40:22.3
17 Mike Fanning Greenville SC 446 40 M 4 40-44 2:44:00.4
18 David Wright Greenville SC 465 54 M 1 50-54 2:46:55.1
19 Beth Brinkley Fletcher NC 441 50 F 1 50-54 2:48:42.9
20 Tom Gibson Easley SC 447 30 M 2 30-34 2:51:00.8
21 mark Rollins clyde NC 460 47 M 4 45-49 3:11:20.8
22 Alice Jones Canton NC 451 29 F 1 25-29 3:19:24.1
23 Laura Rollins clyde NC 459 43 F 1 40-44 3:19:33.3
24 Richard Ramsey Newland NC 458 54 M 2 50-54 3:32:57.7
25 Autumn Shea Greer SC 461 16 F 1 0-19 3:40:03.0
26 Thom Shea Greer SC 462 45 M 5 45-49 3:40:57.0
27 Susan Phillips hodges SC 457 65 F 1 65-69 4:32:55.1
28 Leslie Ward Fair Play SC 464 23 F 1 20-24 4:33:09.0

Leave a Reply

This site uses Akismet to reduce spam. Learn how your comment data is processed.